FOON/MVB METAR and TAF weather

Enter ICAO airport designator
Station Type Date Time Source
FOON METAR 2019/12/11 15:00 UTC NOAA

FOON 111500Z VRB02KT 9999 FEW013 30/24 Q1011


Station Type Date Time Source
FOON Decoded METAR 2019/12/11 15:00 UTC NOAA

Franceville / Mvengue, Gabon (FOON) 01-39S 013-26E
Dec 11, 2019 - 10:00 AM EST / 2019.12.11 1500 UTC
Wind: Variable at 2 MPH (2 KT):0
Visibility: greater than 7 mile(s):0
Sky conditions: mostly clear
Temperature: 86 F (30 C)
Heat index: 95.0 F (35.0 C):1
Dew Point: 75 F (24 C)
Relative Humidity: 70%
Pressure (altimeter): 29.85 in. Hg (1011 hPa)
ob: FOON 111500Z VRB02KT 9999 FEW013 30/24 Q1011
cycle: 15

Station Type Date Time Source
FOON TAF 2012/02/17 18:21 UTC NOAA

TAF TAF FOON 151600Z 1518/1618 20004KT 9999 BKN006
TEMPO 1603/1607 0200 FG OVC002
BECMG 1612/1614 TS SCT015 FEW020CB BKN030

Example: see airport list